sensor_id;sensor_type;location;lat;lon;timestamp;P1;durP1;ratioP1;P2;durP2;ratioP2
51664;SDS011;37751;52.408;12.536;2023-02-15T00:01:51;58.93;;;30.90;;
51664;SDS011;37751;52.408;12.536;2023-02-15T00:04:20;53.87;;;29.30;;
51664;SDS011;37751;52.408;12.536;2023-02-15T00:07:12;59.07;;;30.47;;
51664;SDS011;37751;52.408;12.536;2023-02-15T00:09:42;59.07;;;30.67;;
51664;SDS011;37751;52.408;12.536;2023-02-15T00:12:15;68.13;;;32.83;;
51664;SDS011;37751;52.408;12.536;2023-02-15T00:14:43;62.87;;;30.07;;
51664;SDS011;37751;52.408;12.536;2023-02-15T00:17:11;58.97;;;29.40;;
51664;SDS011;37751;52.408;12.536;2023-02-15T00:19:41;63.63;;;31.87;;
51664;SDS011;37751;52.408;12.536;2023-02-15T00:22:09;64.83;;;31.53;;
51664;SDS011;37751;52.408;12.536;2023-02-15T00:24:37;59.03;;;31.07;;
51664;SDS011;37751;52.408;12.536;2023-02-15T00:27:12;59.50;;;30.30;;
51664;SDS011;37751;52.408;12.536;2023-02-15T00:29:40;61.90;;;30.67;;
51664;SDS011;37751;52.408;12.536;2023-02-15T00:32:07;61.07;;;29.43;;
51664;SDS011;37751;52.408;12.536;2023-02-15T00:34:37;72.60;;;32.83;;
51664;SDS011;37751;52.408;12.536;2023-02-15T00:37:05;66.57;;;31.77;;
51664;SDS011;37751;52.408;12.536;2023-02-15T00:39:33;61.67;;;32.00;;
51664;SDS011;37751;52.408;12.536;2023-02-15T00:42:01;67.80;;;34.10;;
51664;SDS011;37751;52.408;12.536;2023-02-15T00:44:29;65.13;;;32.73;;
51664;SDS011;37751;52.408;12.536;2023-02-15T00:46:57;61.33;;;30.23;;
51664;SDS011;37751;52.408;12.536;2023-02-15T00:49:25;62.73;;;31.23;;
51664;SDS011;37751;52.408;12.536;2023-02-15T00:51:53;62.27;;;30.17;;
51664;SDS011;37751;52.408;12.536;2023-02-15T00:54:21;56.97;;;30.57;;
51664;SDS011;37751;52.408;12.536;2023-02-15T00:56:52;59.73;;;30.47;;
51664;SDS011;37751;52.408;12.536;2023-02-15T00:59:22;57.73;;;28.80;;
51664;SDS011;37751;52.408;12.536;2023-02-15T01:01:50;59.57;;;29.63;;
51664;SDS011;37751;52.408;12.536;2023-02-15T01:04:19;60.37;;;30.80;;
51664;SDS011;37751;52.408;12.536;2023-02-15T01:06:47;56.80;;;27.73;;
51664;SDS011;37751;52.408;12.536;2023-02-15T01:09:17;60.83;;;30.40;;
51664;SDS011;37751;52.408;12.536;2023-02-15T01:11:45;55.93;;;29.97;;
51664;SDS011;37751;52.408;12.536;2023-02-15T01:14:13;59.93;;;29.77;;
51664;SDS011;37751;52.408;12.536;2023-02-15T01:16:41;58.33;;;29.27;;
51664;SDS011;37751;52.408;12.536;2023-02-15T01:19:12;63.80;;;29.73;;
51664;SDS011;37751;52.408;12.536;2023-02-15T01:21:42;65.80;;;29.67;;
51664;SDS011;37751;52.408;12.536;2023-02-15T01:24:11;55.60;;;29.23;;
51664;SDS011;37751;52.408;12.536;2023-02-15T01:26:41;52.50;;;27.33;;
51664;SDS011;37751;52.408;12.536;2023-02-15T01:29:08;57.83;;;30.07;;
51664;SDS011;37751;52.408;12.536;2023-02-15T01:31:36;58.03;;;28.30;;
51664;SDS011;37751;52.408;12.536;2023-02-15T01:34:06;53.63;;;27.43;;
51664;SDS011;37751;52.408;12.536;2023-02-15T01:36:34;59.60;;;30.20;;
51664;SDS011;37751;52.408;12.536;2023-02-15T01:39:02;70.10;;;30.43;;
51664;SDS011;37751;52.408;12.536;2023-02-15T01:41:31;54.63;;;29.20;;
51664;SDS011;37751;52.408;12.536;2023-02-15T01:44:01;55.27;;;29.00;;
51664;SDS011;37751;52.408;12.536;2023-02-15T01:50:15;59.00;;;28.90;;
51664;SDS011;37751;52.408;12.536;2023-02-15T01:53:53;57.83;;;29.47;;
51664;SDS011;37751;52.408;12.536;2023-02-15T01:57:00;69.17;;;29.93;;
51664;SDS011;37751;52.408;12.536;2023-02-15T01:59:39;60.80;;;30.53;;
51664;SDS011;37751;52.408;12.536;2023-02-15T02:02:13;63.53;;;31.07;;
51664;SDS011;37751;52.408;12.536;2023-02-15T02:04:48;63.63;;;29.03;;
51664;SDS011;37751;52.408;12.536;2023-02-15T02:07:23;63.23;;;30.00;;
51664;SDS011;37751;52.408;12.536;2023-02-15T02:09:59;59.40;;;30.20;;
51664;SDS011;37751;52.408;12.536;2023-02-15T02:12:29;59.53;;;30.30;;
51664;SDS011;37751;52.408;12.536;2023-02-15T02:15:00;62.83;;;29.80;;
51664;SDS011;37751;52.408;12.536;2023-02-15T02:29:59;66.60;;;31.33;;
51664;SDS011;37751;52.408;12.536;2023-02-15T02:36:02;61.97;;;29.80;;
51664;SDS011;37751;52.408;12.536;2023-02-15T02:38:42;61.33;;;28.87;;
51664;SDS011;37751;52.408;12.536;2023-02-15T02:42:05;63.33;;;30.87;;
51664;SDS011;37751;52.408;12.536;2023-02-15T02:44:51;58.40;;;28.97;;
51664;SDS011;37751;52.408;12.536;2023-02-15T02:47:33;57.07;;;30.17;;
51664;SDS011;37751;52.408;12.536;2023-02-15T02:50:16;59.17;;;28.53;;
51664;SDS011;37751;52.408;12.536;2023-02-15T02:52:51;65.63;;;29.97;;
51664;SDS011;37751;52.408;12.536;2023-02-15T02:58:36;61.03;;;29.47;;
51664;SDS011;37751;52.408;12.536;2023-02-15T03:01:59;63.00;;;30.10;;
51664;SDS011;37751;52.408;12.536;2023-02-15T03:04:25;62.57;;;30.23;;
51664;SDS011;37751;52.408;12.536;2023-02-15T03:07:03;61.43;;;30.20;;
51664;SDS011;37751;52.408;12.536;2023-02-15T03:09:42;62.63;;;30.67;;
51664;SDS011;37751;52.408;12.536;2023-02-15T03:12:23;62.00;;;29.47;;
51664;SDS011;37751;52.408;12.536;2023-02-15T03:15:01;63.40;;;30.40;;
51664;SDS011;37751;52.408;12.536;2023-02-15T03:17:43;64.57;;;31.33;;
51664;SDS011;37751;52.408;12.536;2023-02-15T03:20:18;63.97;;;29.97;;
51664;SDS011;37751;52.408;12.536;2023-02-15T03:23:01;70.53;;;31.50;;
51664;SDS011;37751;52.408;12.536;2023-02-15T03:25:34;67.87;;;32.10;;
51664;SDS011;37751;52.408;12.536;2023-02-15T03:28:15;69.63;;;32.67;;
51664;SDS011;37751;52.408;12.536;2023-02-15T03:30:48;73.33;;;34.70;;
51664;SDS011;37751;52.408;12.536;2023-02-15T03:33:22;65.30;;;31.63;;
51664;SDS011;37751;52.408;12.536;2023-02-15T03:35:55;72.67;;;32.63;;
51664;SDS011;37751;52.408;12.536;2023-02-15T03:39:22;72.13;;;32.87;;
51664;SDS011;37751;52.408;12.536;2023-02-15T03:45:08;67.90;;;32.83;;
51664;SDS011;37751;52.408;12.536;2023-02-15T03:47:41;75.07;;;32.93;;
51664;SDS011;37751;52.408;12.536;2023-02-15T03:50:27;68.83;;;33.00;;
51664;SDS011;37751;52.408;12.536;2023-02-15T03:53:18;72.83;;;33.03;;
51664;SDS011;37751;52.408;12.536;2023-02-15T03:55:53;73.80;;;32.47;;
51664;SDS011;37751;52.408;12.536;2023-02-15T03:58:22;67.07;;;31.03;;
51664;SDS011;37751;52.408;12.536;2023-02-15T04:01:34;75.67;;;32.80;;
51664;SDS011;37751;52.408;12.536;2023-02-15T04:07:09;76.97;;;35.17;;
51664;SDS011;37751;52.408;12.536;2023-02-15T04:09:46;75.97;;;35.30;;
51664;SDS011;37751;52.408;12.536;2023-02-15T04:12:33;76.40;;;32.97;;
51664;SDS011;37751;52.408;12.536;2023-02-15T04:15:00;83.53;;;36.47;;
51664;SDS011;37751;52.408;12.536;2023-02-15T04:17:47;79.27;;;35.03;;
51664;SDS011;37751;52.408;12.536;2023-02-15T04:20:14;81.10;;;36.63;;
51664;SDS011;37751;52.408;12.536;2023-02-15T04:23:03;76.67;;;34.07;;
51664;SDS011;37751;52.408;12.536;2023-02-15T04:25:53;91.77;;;37.03;;
51664;SDS011;37751;52.408;12.536;2023-02-15T04:28:23;105.70;;;37.80;;
51664;SDS011;37751;52.408;12.536;2023-02-15T04:30:52;133.73;;;39.67;;
51664;SDS011;37751;52.408;12.536;2023-02-15T04:33:42;149.10;;;39.93;;
51664;SDS011;37751;52.408;12.536;2023-02-15T04:36:11;154.77;;;40.70;;
51664;SDS011;37751;52.408;12.536;2023-02-15T04:38:38;223.40;;;39.37;;
51664;SDS011;37751;52.408;12.536;2023-02-15T04:41:06;220.33;;;41.10;;
51664;SDS011;37751;52.408;12.536;2023-02-15T04:43:34;229.60;;;40.50;;
51664;SDS011;37751;52.408;12.536;2023-02-15T04:46:02;254.77;;;41.27;;
51664;SDS011;37751;52.408;12.536;2023-02-15T04:48:30;189.60;;;38.17;;
51664;SDS011;37751;52.408;12.536;2023-02-15T04:50:58;133.47;;;38.83;;
51664;SDS011;37751;52.408;12.536;2023-02-15T04:53:26;182.80;;;40.00;;
51664;SDS011;37751;52.408;12.536;2023-02-15T04:55:53;137.43;;;34.57;;
51664;SDS011;37751;52.408;12.536;2023-02-15T04:58:21;169.70;;;38.30;;
51664;SDS011;37751;52.408;12.536;2023-02-15T05:00:49;192.93;;;35.77;;
51664;SDS011;37751;52.408;12.536;2023-02-15T05:03:19;180.60;;;35.57;;
51664;SDS011;37751;52.408;12.536;2023-02-15T05:05:50;152.03;;;31.97;;
51664;SDS011;37751;52.408;12.536;2023-02-15T05:08:22;230.83;;;42.80;;
51664;SDS011;37751;52.408;12.536;2023-02-15T05:10:50;140.27;;;38.83;;
51664;SDS011;37751;52.408;12.536;2023-02-15T05:13:21;125.50;;;36.33;;
51664;SDS011;37751;52.408;12.536;2023-02-15T05:15:49;172.87;;;37.37;;
51664;SDS011;37751;52.408;12.536;2023-02-15T05:18:22;225.10;;;37.03;;
51664;SDS011;37751;52.408;12.536;2023-02-15T05:20:53;145.60;;;34.53;;
51664;SDS011;37751;52.408;12.536;2023-02-15T05:23:21;197.43;;;38.07;;
51664;SDS011;37751;52.408;12.536;2023-02-15T05:25:51;156.30;;;37.33;;
51664;SDS011;37751;52.408;12.536;2023-02-15T05:28:37;108.67;;;35.23;;
51664;SDS011;37751;52.408;12.536;2023-02-15T05:31:16;160.60;;;33.07;;
51664;SDS011;37751;52.408;12.536;2023-02-15T05:33:46;197.70;;;36.67;;
51664;SDS011;37751;52.408;12.536;2023-02-15T05:36:14;92.17;;;33.83;;
51664;SDS011;37751;52.408;12.536;2023-02-15T05:38:42;193.57;;;39.23;;
51664;SDS011;37751;52.408;12.536;2023-02-15T05:41:12;257.60;;;37.43;;
51664;SDS011;37751;52.408;12.536;2023-02-15T05:43:40;116.43;;;33.60;;
51664;SDS011;37751;52.408;12.536;2023-02-15T05:46:09;158.93;;;35.00;;
51664;SDS011;37751;52.408;12.536;2023-02-15T05:48:41;194.93;;;37.07;;
51664;SDS011;37751;52.408;12.536;2023-02-15T05:51:12;104.23;;;31.10;;
51664;SDS011;37751;52.408;12.536;2023-02-15T05:53:43;236.83;;;36.67;;
51664;SDS011;37751;52.408;12.536;2023-02-15T05:56:13;135.07;;;33.70;;
51664;SDS011;37751;52.408;12.536;2023-02-15T05:58:41;112.47;;;34.07;;
51664;SDS011;37751;52.408;12.536;2023-02-15T06:01:15;290.40;;;41.40;;
51664;SDS011;37751;52.408;12.536;2023-02-15T06:03:45;105.90;;;34.87;;
51664;SDS011;37751;52.408;12.536;2023-02-15T06:06:14;197.90;;;35.93;;
51664;SDS011;37751;52.408;12.536;2023-02-15T06:08:42;187.63;;;34.87;;
51664;SDS011;37751;52.408;12.536;2023-02-15T06:11:11;114.87;;;34.33;;
51664;SDS011;37751;52.408;12.536;2023-02-15T06:13:47;134.07;;;36.07;;
51664;SDS011;37751;52.408;12.536;2023-02-15T06:16:16;123.03;;;34.63;;
51664;SDS011;37751;52.408;12.536;2023-02-15T06:18:44;178.73;;;35.90;;
51664;SDS011;37751;52.408;12.536;2023-02-15T06:21:12;151.07;;;36.67;;
51664;SDS011;37751;52.408;12.536;2023-02-15T06:23:44;179.80;;;36.50;;
51664;SDS011;37751;52.408;12.536;2023-02-15T06:26:47;140.53;;;32.23;;
51664;SDS011;37751;52.408;12.536;2023-02-15T06:29:15;108.23;;;32.37;;
51664;SDS011;37751;52.408;12.536;2023-02-15T06:31:45;126.67;;;32.10;;
51664;SDS011;37751;52.408;12.536;2023-02-15T06:34:13;111.00;;;31.00;;
51664;SDS011;37751;52.408;12.536;2023-02-15T06:36:44;158.47;;;32.63;;
51664;SDS011;37751;52.408;12.536;2023-02-15T06:39:14;118.10;;;33.17;;
51664;SDS011;37751;52.408;12.536;2023-02-15T06:41:42;134.80;;;36.73;;
51664;SDS011;37751;52.408;12.536;2023-02-15T06:44:14;181.70;;;35.50;;
51664;SDS011;37751;52.408;12.536;2023-02-15T06:46:45;160.27;;;37.83;;
51664;SDS011;37751;52.408;12.536;2023-02-15T06:49:13;104.53;;;32.43;;
51664;SDS011;37751;52.408;12.536;2023-02-15T06:51:41;95.87;;;31.00;;
51664;SDS011;37751;52.408;12.536;2023-02-15T06:54:09;115.77;;;33.33;;
51664;SDS011;37751;52.408;12.536;2023-02-15T06:56:41;122.57;;;35.77;;
51664;SDS011;37751;52.408;12.536;2023-02-15T06:59:13;267.30;;;40.33;;
51664;SDS011;37751;52.408;12.536;2023-02-15T07:01:44;240.50;;;39.90;;
51664;SDS011;37751;52.408;12.536;2023-02-15T07:04:15;114.17;;;35.67;;
51664;SDS011;37751;52.408;12.536;2023-02-15T07:06:43;120.30;;;34.00;;
51664;SDS011;37751;52.408;12.536;2023-02-15T07:09:11;214.57;;;38.10;;
51664;SDS011;37751;52.408;12.536;2023-02-15T07:11:41;123.87;;;34.80;;
51664;SDS011;37751;52.408;12.536;2023-02-15T07:14:29;158.17;;;34.27;;
51664;SDS011;37751;52.408;12.536;2023-02-15T07:16:57;129.40;;;35.17;;
51664;SDS011;37751;52.408;12.536;2023-02-15T07:19:25;138.27;;;34.27;;
51664;SDS011;37751;52.408;12.536;2023-02-15T07:21:53;140.67;;;31.87;;
51664;SDS011;37751;52.408;12.536;2023-02-15T07:24:22;106.83;;;31.37;;
51664;SDS011;37751;52.408;12.536;2023-02-15T07:26:50;162.33;;;34.83;;
51664;SDS011;37751;52.408;12.536;2023-02-15T07:29:18;106.53;;;32.17;;
51664;SDS011;37751;52.408;12.536;2023-02-15T07:31:45;128.43;;;37.20;;
51664;SDS011;37751;52.408;12.536;2023-02-15T07:34:13;179.00;;;36.33;;
51664;SDS011;37751;52.408;12.536;2023-02-15T07:36:44;124.87;;;34.43;;
51664;SDS011;37751;52.408;12.536;2023-02-15T07:39:12;152.83;;;32.70;;
51664;SDS011;37751;52.408;12.536;2023-02-15T07:41:40;165.00;;;30.83;;
51664;SDS011;37751;52.408;12.536;2023-02-15T07:44:12;132.90;;;32.07;;
51664;SDS011;37751;52.408;12.536;2023-02-15T07:46:41;134.80;;;32.37;;
51664;SDS011;37751;52.408;12.536;2023-02-15T07:49:09;228.33;;;33.97;;
51664;SDS011;37751;52.408;12.536;2023-02-15T07:51:37;104.40;;;34.20;;
51664;SDS011;37751;52.408;12.536;2023-02-15T07:54:05;215.97;;;34.83;;
51664;SDS011;37751;52.408;12.536;2023-02-15T07:56:33;174.93;;;31.20;;
51664;SDS011;37751;52.408;12.536;2023-02-15T07:59:03;151.20;;;31.87;;
51664;SDS011;37751;52.408;12.536;2023-02-15T08:01:33;92.10;;;30.47;;
51664;SDS011;37751;52.408;12.536;2023-02-15T08:04:04;106.83;;;30.57;;
51664;SDS011;37751;52.408;12.536;2023-02-15T08:06:35;117.43;;;31.30;;
51664;SDS011;37751;52.408;12.536;2023-02-15T08:09:04;156.17;;;33.90;;
51664;SDS011;37751;52.408;12.536;2023-02-15T08:11:40;100.67;;;30.83;;
51664;SDS011;37751;52.408;12.536;2023-02-15T08:14:18;84.07;;;32.37;;
51664;SDS011;37751;52.408;12.536;2023-02-15T08:16:53;71.03;;;30.43;;
51664;SDS011;37751;52.408;12.536;2023-02-15T08:19:30;86.77;;;29.80;;
51664;SDS011;37751;52.408;12.536;2023-02-15T08:22:03;70.40;;;28.93;;
51664;SDS011;37751;52.408;12.536;2023-02-15T08:24:34;76.37;;;29.73;;
51664;SDS011;37751;52.408;12.536;2023-02-15T08:27:07;72.70;;;30.93;;
51664;SDS011;37751;52.408;12.536;2023-02-15T08:29:38;62.93;;;31.90;;
51664;SDS011;37751;52.408;12.536;2023-02-15T08:32:11;86.97;;;29.37;;
51664;SDS011;37751;52.408;12.536;2023-02-15T08:34:40;105.57;;;30.00;;
51664;SDS011;37751;52.408;12.536;2023-02-15T08:37:09;85.87;;;30.50;;
51664;SDS011;37751;52.408;12.536;2023-02-15T08:39:37;67.87;;;30.17;;
51664;SDS011;37751;52.408;12.536;2023-02-15T08:42:04;65.93;;;30.37;;
51664;SDS011;37751;52.408;12.536;2023-02-15T08:44:32;70.83;;;30.90;;
51664;SDS011;37751;52.408;12.536;2023-02-15T08:47:00;67.17;;;31.47;;
51664;SDS011;37751;52.408;12.536;2023-02-15T08:49:31;64.10;;;31.43;;
51664;SDS011;37751;52.408;12.536;2023-02-15T08:51:59;58.73;;;30.27;;
51664;SDS011;37751;52.408;12.536;2023-02-15T08:54:29;59.40;;;30.57;;
51664;SDS011;37751;52.408;12.536;2023-02-15T08:56:57;56.90;;;29.77;;
51664;SDS011;37751;52.408;12.536;2023-02-15T08:59:24;59.70;;;30.50;;
51664;SDS011;37751;52.408;12.536;2023-02-15T09:01:54;64.20;;;32.63;;
51664;SDS011;37751;52.408;12.536;2023-02-15T09:04:22;61.13;;;30.67;;
51664;SDS011;37751;52.408;12.536;2023-02-15T09:06:50;50.73;;;29.20;;
51664;SDS011;37751;52.408;12.536;2023-02-15T09:09:21;51.63;;;28.67;;
51664;SDS011;37751;52.408;12.536;2023-02-15T09:11:50;49.27;;;28.37;;
51664;SDS011;37751;52.408;12.536;2023-02-15T09:14:24;44.13;;;25.90;;
51664;SDS011;37751;52.408;12.536;2023-02-15T09:16:54;44.20;;;26.17;;
51664;SDS011;37751;52.408;12.536;2023-02-15T09:19:25;46.03;;;26.60;;
51664;SDS011;37751;52.408;12.536;2023-02-15T09:21:52;48.13;;;27.53;;
51664;SDS011;37751;52.408;12.536;2023-02-15T09:24:21;48.10;;;27.20;;
51664;SDS011;37751;52.408;12.536;2023-02-15T09:26:52;42.03;;;25.40;;
51664;SDS011;37751;52.408;12.536;2023-02-15T09:29:20;43.00;;;26.90;;
51664;SDS011;37751;52.408;12.536;2023-02-15T09:31:50;45.43;;;26.77;;
51664;SDS011;37751;52.408;12.536;2023-02-15T09:34:19;47.00;;;26.57;;
51664;SDS011;37751;52.408;12.536;2023-02-15T09:36:49;48.77;;;26.40;;
51664;SDS011;37751;52.408;12.536;2023-02-15T09:39:19;44.63;;;26.93;;
51664;SDS011;37751;52.408;12.536;2023-02-15T09:56:52;50.60;;;29.57;;
51664;SDS011;37751;52.408;12.536;2023-02-15T09:59:36;50.47;;;29.53;;
51664;SDS011;37751;52.408;12.536;2023-02-15T10:02:46;55.40;;;29.60;;
51664;SDS011;37751;52.408;12.536;2023-02-15T10:08:40;47.93;;;27.30;;
51664;SDS011;37751;52.408;12.536;2023-02-15T10:11:16;43.53;;;26.97;;
51664;SDS011;37751;52.408;12.536;2023-02-15T10:23:28;43.40;;;25.77;;
51664;SDS011;37751;52.408;12.536;2023-02-15T10:29:09;47.93;;;27.07;;
51664;SDS011;37751;52.408;12.536;2023-02-15T10:31:50;42.90;;;25.87;;
51664;SDS011;37751;52.408;12.536;2023-02-15T10:34:49;42.43;;;26.50;;
51664;SDS011;37751;52.408;12.536;2023-02-15T10:37:43;42.00;;;25.77;;
51664;SDS011;37751;52.408;12.536;2023-02-15T10:46:01;41.67;;;26.00;;
51664;SDS011;37751;52.408;12.536;2023-02-15T10:54:58;42.47;;;26.37;;
51664;SDS011;37751;52.408;12.536;2023-02-15T11:06:10;46.60;;;28.40;;
51664;SDS011;37751;52.408;12.536;2023-02-15T11:08:45;51.33;;;28.40;;
51664;SDS011;37751;52.408;12.536;2023-02-15T11:11:21;52.27;;;27.63;;
51664;SDS011;37751;52.408;12.536;2023-02-15T11:13:56;50.40;;;27.23;;
51664;SDS011;37751;52.408;12.536;2023-02-15T11:16:34;49.47;;;26.17;;
51664;SDS011;37751;52.408;12.536;2023-02-15T11:19:17;54.90;;;27.57;;
51664;SDS011;37751;52.408;12.536;2023-02-15T11:21:59;50.00;;;26.83;;
51664;SDS011;37751;52.408;12.536;2023-02-15T11:24:40;49.43;;;26.43;;
51664;SDS011;37751;52.408;12.536;2023-02-15T11:27:18;50.90;;;25.97;;
51664;SDS011;37751;52.408;12.536;2023-02-15T11:30:39;49.13;;;26.03;;
51664;SDS011;37751;52.408;12.536;2023-02-15T11:33:21;42.73;;;24.83;;
51664;SDS011;37751;52.408;12.536;2023-02-15T11:36:16;40.83;;;22.63;;
51664;SDS011;37751;52.408;12.536;2023-02-15T11:42:17;41.70;;;23.60;;
51664;SDS011;37751;52.408;12.536;2023-02-15T11:48:26;44.20;;;24.20;;
51664;SDS011;37751;52.408;12.536;2023-02-15T11:51:04;43.23;;;24.70;;
51664;SDS011;37751;52.408;12.536;2023-02-15T11:53:55;40.57;;;25.03;;
51664;SDS011;37751;52.408;12.536;2023-02-15T11:56:26;35.00;;;23.03;;
51664;SDS011;37751;52.408;12.536;2023-02-15T12:01:38;33.13;;;20.90;;
51664;SDS011;37751;52.408;12.536;2023-02-15T12:04:43;38.23;;;20.93;;
51664;SDS011;37751;52.408;12.536;2023-02-15T12:07:35;42.97;;;22.07;;
51664;SDS011;37751;52.408;12.536;2023-02-15T12:10:34;40.03;;;21.60;;
51664;SDS011;37751;52.408;12.536;2023-02-15T12:14:05;34.93;;;21.73;;
51664;SDS011;37751;52.408;12.536;2023-02-15T12:16:58;33.53;;;19.63;;
51664;SDS011;37751;52.408;12.536;2023-02-15T12:19:45;35.60;;;22.03;;
51664;SDS011;37751;52.408;12.536;2023-02-15T12:22:35;38.30;;;22.50;;
51664;SDS011;37751;52.408;12.536;2023-02-15T12:31:30;37.23;;;21.87;;
51664;SDS011;37751;52.408;12.536;2023-02-15T12:34:19;36.60;;;20.83;;
51664;SDS011;37751;52.408;12.536;2023-02-15T12:37:10;38.97;;;22.57;;
51664;SDS011;37751;52.408;12.536;2023-02-15T12:40:01;40.10;;;22.00;;
51664;SDS011;37751;52.408;12.536;2023-02-15T12:42:53;34.23;;;20.53;;
51664;SDS011;37751;52.408;12.536;2023-02-15T12:45:43;38.23;;;22.40;;
51664;SDS011;37751;52.408;12.536;2023-02-15T12:48:16;37.63;;;21.83;;
51664;SDS011;37751;52.408;12.536;2023-02-15T12:50:48;34.80;;;21.37;;
51664;SDS011;37751;52.408;12.536;2023-02-15T12:56:06;33.30;;;22.58;;
51664;SDS011;37751;52.408;12.536;2023-02-15T12:58:40;35.45;;;21.65;;
51664;SDS011;37751;52.408;12.536;2023-02-15T13:01:13;36.75;;;21.38;;
51664;SDS011;37751;52.408;12.536;2023-02-15T13:06:29;39.57;;;22.70;;
51664;SDS011;37751;52.408;12.536;2023-02-15T13:09:20;33.55;;;21.55;;
51664;SDS011;37751;52.408;12.536;2023-02-15T13:12:21;32.97;;;20.92;;
51664;SDS011;37751;52.408;12.536;2023-02-15T13:15:22;32.35;;;20.60;;
51664;SDS011;37751;52.408;12.536;2023-02-15T13:18:28;31.60;;;19.52;;
51664;SDS011;37751;52.408;12.536;2023-02-15T13:21:15;32.03;;;18.52;;
51664;SDS011;37751;52.408;12.536;2023-02-15T13:24:05;31.63;;;19.10;;
51664;SDS011;37751;52.408;12.536;2023-02-15T13:27:00;31.70;;;19.13;;
51664;SDS011;37751;52.408;12.536;2023-02-15T13:29:46;28.70;;;19.10;;
51664;SDS011;37751;52.408;12.536;2023-02-15T13:32:33;29.65;;;19.73;;
51664;SDS011;37751;52.408;12.536;2023-02-15T13:35:16;32.05;;;19.15;;
51664;SDS011;37751;52.408;12.536;2023-02-15T13:41:07;32.25;;;19.52;;
51664;SDS011;37751;52.408;12.536;2023-02-15T13:43:52;29.65;;;19.25;;
51664;SDS011;37751;52.408;12.536;2023-02-15T14:10:02;26.42;;;18.20;;
51664;SDS011;37751;52.408;12.536;2023-02-15T14:13:04;27.42;;;19.08;;
51664;SDS011;37751;52.408;12.536;2023-02-15T14:16:17;31.77;;;18.30;;
51664;SDS011;37751;52.408;12.536;2023-02-15T14:20:03;24.80;;;16.60;;
51664;SDS011;37751;52.408;12.536;2023-02-15T14:29:53;31.70;;;18.95;;
51664;SDS011;37751;52.408;12.536;2023-02-15T14:35:13;33.03;;;20.42;;
51664;SDS011;37751;52.408;12.536;2023-02-15T14:49:25;31.48;;;18.92;;
51664;SDS011;37751;52.408;12.536;2023-02-15T14:59:46;32.20;;;19.05;;
51664;SDS011;37751;52.408;12.536;2023-02-15T15:05:29;34.13;;;19.83;;
51664;SDS011;37751;52.408;12.536;2023-02-15T15:08:03;33.72;;;20.30;;
51664;SDS011;37751;52.408;12.536;2023-02-15T15:10:41;34.13;;;21.95;;
51664;SDS011;37751;52.408;12.536;2023-02-15T15:22:23;38.92;;;21.88;;
51664;SDS011;37751;52.408;12.536;2023-02-15T15:24:56;38.25;;;19.92;;
51664;SDS011;37751;52.408;12.536;2023-02-15T15:39:26;39.58;;;23.23;;
51664;SDS011;37751;52.408;12.536;2023-02-15T15:51:02;31.52;;;20.38;;
51664;SDS011;37751;52.408;12.536;2023-02-15T15:53:48;42.30;;;23.02;;
51664;SDS011;37751;52.408;12.536;2023-02-15T15:56:22;49.33;;;23.02;;
51664;SDS011;37751;52.408;12.536;2023-02-15T15:59:11;47.92;;;26.90;;
51664;SDS011;37751;52.408;12.536;2023-02-15T16:01:47;42.53;;;27.00;;
51664;SDS011;37751;52.408;12.536;2023-02-15T16:04:24;53.03;;;28.38;;
51664;SDS011;37751;52.408;12.536;2023-02-15T16:10:03;46.57;;;27.30;;
51664;SDS011;37751;52.408;12.536;2023-02-15T16:12:47;48.65;;;28.63;;
51664;SDS011;37751;52.408;12.536;2023-02-15T16:15:42;49.30;;;29.57;;
51664;SDS011;37751;52.408;12.536;2023-02-15T16:18:16;48.33;;;29.23;;
51664;SDS011;37751;52.408;12.536;2023-02-15T16:21:04;47.47;;;28.47;;
51664;SDS011;37751;52.408;12.536;2023-02-15T16:29:33;53.70;;;30.87;;
51664;SDS011;37751;52.408;12.536;2023-02-15T16:32:06;50.07;;;31.17;;
51664;SDS011;37751;52.408;12.536;2023-02-15T16:35:12;52.03;;;30.63;;
51664;SDS011;37751;52.408;12.536;2023-02-15T16:37:46;51.30;;;30.70;;
51664;SDS011;37751;52.408;12.536;2023-02-15T16:42:55;64.53;;;34.13;;
51664;SDS011;37751;52.408;12.536;2023-02-15T16:45:29;61.97;;;34.97;;
51664;SDS011;37751;52.408;12.536;2023-02-15T16:48:05;76.30;;;40.90;;
51664;SDS011;37751;52.408;12.536;2023-02-15T16:50:54;83.07;;;44.37;;
51664;SDS011;37751;52.408;12.536;2023-02-15T16:53:28;68.10;;;37.77;;
51664;SDS011;37751;52.408;12.536;2023-02-15T16:55:59;55.10;;;32.73;;
51664;SDS011;37751;52.408;12.536;2023-02-15T16:58:43;94.43;;;49.20;;
51664;SDS011;37751;52.408;12.536;2023-02-15T17:01:22;57.20;;;34.67;;
51664;SDS011;37751;52.408;12.536;2023-02-15T17:04:11;71.00;;;39.67;;
51664;SDS011;37751;52.408;12.536;2023-02-15T17:07:14;59.33;;;33.70;;
51664;SDS011;37751;52.408;12.536;2023-02-15T17:12:43;72.73;;;32.90;;
51664;SDS011;37751;52.408;12.536;2023-02-15T17:18:00;59.43;;;34.10;;
51664;SDS011;37751;52.408;12.536;2023-02-15T17:20:50;63.23;;;34.57;;
51664;SDS011;37751;52.408;12.536;2023-02-15T17:23:24;58.93;;;34.30;;
51664;SDS011;37751;52.408;12.536;2023-02-15T17:28:56;63.60;;;37.27;;
51664;SDS011;37751;52.408;12.536;2023-02-15T17:31:37;60.70;;;36.30;;
51664;SDS011;37751;52.408;12.536;2023-02-15T17:34:05;63.63;;;36.97;;
51664;SDS011;37751;52.408;12.536;2023-02-15T17:36:51;59.40;;;34.17;;
51664;SDS011;37751;52.408;12.536;2023-02-15T17:39:26;63.50;;;34.97;;
51664;SDS011;37751;52.408;12.536;2023-02-15T17:41:55;61.50;;;33.73;;
51664;SDS011;37751;52.408;12.536;2023-02-15T17:44:23;62.30;;;33.17;;
51664;SDS011;37751;52.408;12.536;2023-02-15T17:46:51;60.37;;;35.23;;
51664;SDS011;37751;52.408;12.536;2023-02-15T17:49:23;61.00;;;34.83;;
51664;SDS011;37751;52.408;12.536;2023-02-15T17:51:56;64.97;;;36.00;;
51664;SDS011;37751;52.408;12.536;2023-02-15T17:54:25;63.17;;;36.77;;
51664;SDS011;37751;52.408;12.536;2023-02-15T17:57:12;67.10;;;36.47;;
51664;SDS011;37751;52.408;12.536;2023-02-15T17:59:42;66.73;;;36.43;;
51664;SDS011;37751;52.408;12.536;2023-02-15T18:02:38;64.77;;;36.80;;
51664;SDS011;37751;52.408;12.536;2023-02-15T18:05:24;68.93;;;36.50;;
51664;SDS011;37751;52.408;12.536;2023-02-15T18:08:12;68.70;;;37.67;;
51664;SDS011;37751;52.408;12.536;2023-02-15T18:11:04;68.13;;;36.80;;
51664;SDS011;37751;52.408;12.536;2023-02-15T18:13:52;77.80;;;39.70;;
51664;SDS011;37751;52.408;12.536;2023-02-15T18:16:26;63.70;;;34.53;;
51664;SDS011;37751;52.408;12.536;2023-02-15T18:19:03;67.67;;;37.23;;
51664;SDS011;37751;52.408;12.536;2023-02-15T18:21:40;61.00;;;34.13;;
51664;SDS011;37751;52.408;12.536;2023-02-15T18:24:16;64.67;;;33.77;;
51664;SDS011;37751;52.408;12.536;2023-02-15T18:26:51;66.53;;;33.60;;
51664;SDS011;37751;52.408;12.536;2023-02-15T18:29:21;63.57;;;34.03;;
51664;SDS011;37751;52.408;12.536;2023-02-15T18:31:54;64.10;;;34.30;;